createdAt,value
2022-09-04T00:00:01.596Z,1015.75
2022-09-04T00:01:01.908Z,1015.82
2022-09-04T00:02:02.239Z,1015.85
2022-09-04T00:03:02.600Z,1015.76
2022-09-04T00:04:03.006Z,1015.82
2022-09-04T00:05:03.259Z,1015.86
2022-09-04T00:06:03.442Z,1015.90
2022-09-04T00:07:03.711Z,1015.89
2022-09-04T00:08:03.972Z,1015.79
2022-09-04T00:09:04.216Z,1015.78
2022-09-04T00:10:04.431Z,1015.79
2022-09-04T00:11:04.784Z,1015.81
2022-09-04T00:12:05.002Z,1015.77
2022-09-04T00:13:05.345Z,1015.77
2022-09-04T00:14:05.696Z,1015.80
2022-09-04T00:15:05.908Z,1015.78
2022-09-04T00:16:06.257Z,1015.75
2022-09-04T00:17:06.447Z,1015.77
2022-09-04T00:18:06.805Z,1015.76
2022-09-04T00:19:07.146Z,1015.76
2022-09-04T00:20:07.357Z,1015.79
2022-09-04T00:21:07.715Z,1015.72
2022-09-04T00:22:07.948Z,1015.82
2022-09-04T00:23:08.183Z,1015.74
2022-09-04T00:24:08.405Z,1015.82
2022-09-04T00:25:08.763Z,1015.78
2022-09-04T00:26:08.979Z,1015.77
2022-09-04T00:27:09.347Z,1015.82
2022-09-04T00:28:09.699Z,1015.85
2022-09-04T00:29:09.919Z,1015.79
2022-09-04T00:30:10.260Z,1015.81
2022-09-04T00:31:10.720Z,1015.82
2022-09-04T00:32:10.922Z,1015.82
2022-09-04T00:33:11.190Z,1015.79
2022-09-04T00:34:11.494Z,1015.84
2022-09-04T00:35:11.687Z,1015.81
2022-09-04T00:36:12.032Z,1015.93
2022-09-04T00:37:12.353Z,1015.95
2022-09-04T00:38:12.689Z,1015.94
2022-09-04T00:39:14.004Z,1015.92
2022-09-04T00:40:13.341Z,1015.97
2022-09-04T00:41:13.666Z,1015.89
2022-09-04T00:42:13.984Z,1015.96
2022-09-04T00:43:14.339Z,1016.02
2022-09-04T00:44:14.697Z,1016.00
2022-09-04T00:45:16.722Z,1016.00
2022-09-04T00:46:15.339Z,1015.98
2022-09-04T00:47:15.545Z,1016.01
2022-09-04T00:48:15.902Z,1016.00
2022-09-04T00:49:16.098Z,1016.04
2022-09-04T00:50:16.438Z,1016.01
2022-09-04T00:51:16.787Z,1016.08
2022-09-04T00:52:16.998Z,1016.04
2022-09-04T00:53:17.245Z,1016.04
2022-09-04T00:54:17.601Z,1016.07
2022-09-04T00:55:17.822Z,1016.05
2022-09-04T00:56:18.194Z,1016.10
2022-09-04T00:57:18.442Z,1016.13
2022-09-04T00:58:18.650Z,1016.08
2022-09-04T00:59:19.031Z,1016.10
2022-09-04T01:00:19.241Z,1016.13
2022-09-04T01:01:19.680Z,1016.08
2022-09-04T01:02:19.946Z,1016.18
2022-09-04T01:03:20.420Z,1016.12
2022-09-04T01:04:20.511Z,1016.15
2022-09-04T01:05:20.700Z,1016.07
2022-09-04T01:06:21.053Z,1016.10
2022-09-04T01:07:21.282Z,1016.10
2022-09-04T01:08:21.603Z,1016.07
2022-09-04T01:09:21.794Z,1016.09
2022-09-04T01:10:22.142Z,1016.04
2022-09-04T01:11:22.466Z,1016.12
2022-09-04T01:12:22.797Z,1016.05
2022-09-04T01:13:23.188Z,1016.11
2022-09-04T01:14:23.409Z,1016.11
2022-09-04T01:15:23.721Z,1016.08
2022-09-04T01:16:24.110Z,1016.11
2022-09-04T01:17:24.351Z,1016.12
2022-09-04T01:18:24.780Z,1016.09
2022-09-04T01:19:24.996Z,1016.05
2022-09-04T01:20:25.317Z,1016.06
2022-09-04T01:21:25.646Z,1016.09
2022-09-04T01:22:25.989Z,1016.07
2022-09-04T01:23:26.338Z,1016.07
2022-09-04T01:24:26.699Z,1016.11
2022-09-04T01:25:26.918Z,1016.11
2022-09-04T01:26:27.275Z,1016.10
2022-09-04T01:27:27.498Z,1016.09
2022-09-04T01:28:27.720Z,1016.11
2022-09-04T01:29:28.054Z,1016.12
2022-09-04T01:30:28.382Z,1016.05
2022-09-04T01:31:28.747Z,1016.01
2022-09-04T01:32:28.962Z,1016.02
2022-09-04T01:33:29.313Z,1015.97
2022-09-04T01:34:29.564Z,1016.03
2022-09-04T01:35:29.804Z,1015.96
2022-09-04T01:36:30.140Z,1016.01
2022-09-04T01:37:30.483Z,1016.00
2022-09-04T01:38:30.685Z,1016.05
2022-09-04T01:39:31.099Z,1016.06
2022-09-04T01:40:35.327Z,1016.05
2022-09-04T01:41:35.147Z,1016.05
2022-09-04T01:42:32.949Z,1016.05
2022-09-04T01:43:32.166Z,1016.08
2022-09-04T01:44:32.505Z,1016.14
2022-09-04T01:45:32.872Z,1016.11
2022-09-04T01:46:33.079Z,1016.06
2022-09-04T01:47:33.474Z,1016.17
2022-09-04T01:48:33.721Z,1016.11
2022-09-04T01:49:33.971Z,1016.15
2022-09-04T01:50:34.219Z,1016.12
2022-09-04T01:51:34.452Z,1016.12
2022-09-04T01:52:34.660Z,1016.12
2022-09-04T01:53:34.997Z,1016.14
2022-09-04T01:54:35.342Z,1016.08
2022-09-04T01:55:35.670Z,1016.09
2022-09-04T01:56:36.016Z,1016.06
2022-09-04T01:57:36.358Z,1016.09
2022-09-04T01:58:36.702Z,1016.15
2022-09-04T01:59:36.940Z,1016.12
2022-09-04T02:00:37.992Z,1016.12
2022-09-04T02:01:37.503Z,1016.15
2022-09-04T02:02:37.892Z,1016.16
2022-09-04T02:03:38.116Z,1016.13
2022-09-04T02:04:38.474Z,1016.19
2022-09-04T02:05:38.712Z,1016.12
2022-09-04T02:06:38.924Z,1016.13
2022-09-04T02:07:39.266Z,1016.13
2022-09-04T02:08:39.610Z,1016.18
2022-09-04T02:09:39.964Z,1016.16
2022-09-04T02:10:40.211Z,1016.20
2022-09-04T02:11:40.437Z,1016.18
2022-09-04T02:12:40.754Z,1016.14
2022-09-04T02:13:41.158Z,1016.15
2022-09-04T02:14:41.378Z,1016.13
2022-09-04T02:15:41.787Z,1016.22
2022-09-04T02:16:42.045Z,1016.15
2022-09-04T02:17:42.269Z,1016.17
2022-09-04T02:18:42.639Z,1016.14
2022-09-04T02:19:42.869Z,1016.20
2022-09-04T02:20:43.120Z,1016.18
2022-09-04T02:21:43.352Z,1016.19
2022-09-04T02:22:43.607Z,1016.20
2022-09-04T02:23:43.921Z,1016.17
2022-09-04T02:24:44.297Z,1016.18
2022-09-04T02:25:44.522Z,1016.16
2022-09-04T02:26:44.751Z,1016.16
2022-09-04T02:27:44.987Z,1016.25
2022-09-04T02:28:45.211Z,1016.22
2022-09-04T02:29:45.453Z,1016.20
2022-09-04T02:30:45.815Z,1016.19
2022-09-04T02:31:47.091Z,1016.14
2022-09-04T02:32:46.244Z,1016.17
2022-09-04T02:33:46.496Z,1016.18
2022-09-04T02:34:46.744Z,1016.12
2022-09-04T02:35:46.982Z,1016.16
2022-09-04T02:36:47.195Z,1016.22
2022-09-04T02:37:47.548Z,1016.16
2022-09-04T02:38:47.887Z,1016.17
2022-09-04T02:39:48.298Z,1016.17
2022-09-04T02:40:48.537Z,1016.20
2022-09-04T02:41:48.778Z,1016.13
2022-09-04T02:42:49.069Z,1016.19
2022-09-04T02:43:49.306Z,1016.16
2022-09-04T02:44:49.526Z,1016.12
2022-09-04T02:45:49.870Z,1016.12
2022-09-04T02:46:50.224Z,1016.11
2022-09-04T02:47:50.463Z,1016.10
2022-09-04T02:48:50.800Z,1016.05
2022-09-04T02:49:51.129Z,1016.05
2022-09-04T02:50:51.469Z,1016.09
2022-09-04T02:51:51.805Z,1016.14
2022-09-04T02:52:52.152Z,1016.13
2022-09-04T02:53:52.389Z,1016.11
2022-09-04T02:54:52.582Z,1016.13
2022-09-04T02:55:52.933Z,1016.11
2022-09-04T02:56:53.155Z,1016.09
2022-09-04T02:57:53.505Z,1016.10
2022-09-04T02:58:53.832Z,1016.10
2022-09-04T02:59:54.058Z,1016.09
2022-09-04T03:00:54.548Z,1016.09
2022-09-04T03:01:54.699Z,1016.13
2022-09-04T03:02:54.906Z,1016.13
2022-09-04T03:03:55.236Z,1016.10
2022-09-04T03:04:55.574Z,1016.16
2022-09-04T03:05:55.907Z,1016.10
2022-09-04T03:06:56.274Z,1016.11
2022-09-04T03:07:56.507Z,1016.14
2022-09-04T03:08:56.776Z,1016.12
2022-09-04T03:09:56.976Z,1016.10
2022-09-04T03:10:57.202Z,1016.09
2022-09-04T03:11:57.552Z,1016.10
2022-09-04T03:12:57.898Z,1016.15
2022-09-04T03:13:58.136Z,1016.13
2022-09-04T03:14:58.358Z,1016.17
2022-09-04T03:15:58.751Z,1016.22
2022-09-04T03:16:58.970Z,1016.21
2022-09-04T03:17:59.305Z,1016.20
2022-09-04T03:18:59.671Z,1016.19
2022-09-04T03:21:01.085Z,1016.22
2022-09-04T03:22:08.988Z,1016.23
2022-09-04T03:23:01.564Z,1016.25
2022-09-04T03:24:01.901Z,1016.22
2022-09-04T03:25:02.302Z,1016.23
2022-09-04T03:26:02.544Z,1016.30
2022-09-04T03:27:02.863Z,1016.32
2022-09-04T03:28:03.184Z,1016.29
2022-09-04T03:29:03.638Z,1016.30
2022-09-04T03:30:03.740Z,1016.30
2022-09-04T03:31:04.099Z,1016.34
2022-09-04T03:32:15.186Z,1016.29
2022-09-04T03:33:05.619Z,1016.33
2022-09-04T03:34:04.883Z,1016.30
2022-09-04T03:35:05.217Z,1016.26
2022-09-04T03:36:05.547Z,1016.32
2022-09-04T03:37:05.884Z,1016.33
2022-09-04T03:38:06.216Z,1016.34
2022-09-04T03:39:06.563Z,1016.31
2022-09-04T03:40:06.771Z,1016.38
2022-09-04T03:41:07.108Z,1016.38
2022-09-04T03:42:07.449Z,1016.33
2022-09-04T03:43:07.770Z,1016.39
2022-09-04T03:44:08.119Z,1016.33
2022-09-04T03:45:08.340Z,1016.39
2022-09-04T03:46:08.731Z,1016.32
2022-09-04T03:47:08.941Z,1016.38
2022-09-04T03:48:09.279Z,1016.36
2022-09-04T03:49:09.617Z,1016.40
2022-09-04T03:50:09.942Z,1016.38
2022-09-04T03:51:10.280Z,1016.39
2022-09-04T03:52:10.618Z,1016.41
2022-09-04T03:53:10.960Z,1016.38
2022-09-04T03:54:11.330Z,1016.41
2022-09-04T03:55:11.555Z,1016.38
2022-09-04T03:56:11.902Z,1016.41
2022-09-04T03:57:12.113Z,1016.47
2022-09-04T03:58:12.523Z,1016.47
2022-09-04T03:59:12.773Z,1016.46
2022-09-04T04:00:13.110Z,1016.43
2022-09-04T04:01:13.610Z,1016.51
2022-09-04T04:02:13.742Z,1016.46
2022-09-04T04:03:14.136Z,1016.52
2022-09-04T04:04:14.386Z,1016.43
2022-09-04T04:05:14.604Z,1016.46
2022-09-04T04:06:14.933Z,1016.44
2022-09-04T04:07:15.301Z,1016.45
2022-09-04T04:08:15.516Z,1016.45
2022-09-04T04:09:15.845Z,1016.49
2022-09-04T04:10:16.189Z,1016.58
2022-09-04T04:11:16.567Z,1016.53
2022-09-04T04:12:16.786Z,1016.56
2022-09-04T04:13:17.146Z,1016.51
2022-09-04T04:14:17.378Z,1016.54
2022-09-04T04:15:17.606Z,1016.53
2022-09-04T04:16:17.877Z,1016.52
2022-09-04T04:17:20.621Z,1016.52
2022-09-04T04:18:18.493Z,1016.51
2022-09-04T04:19:19.687Z,1016.57
2022-09-04T04:20:19.007Z,1016.54
2022-09-04T04:21:19.238Z,1016.57
2022-09-04T04:22:19.467Z,1016.57
2022-09-04T04:23:19.750Z,1016.53
2022-09-04T04:24:19.989Z,1016.59
2022-09-04T04:25:20.288Z,1016.56
2022-09-04T04:26:20.530Z,1016.64
2022-09-04T04:27:20.831Z,1016.69
2022-09-04T04:28:21.159Z,1016.68
2022-09-04T04:29:21.360Z,1016.73
2022-09-04T04:30:21.684Z,1016.72
2022-09-04T04:31:21.982Z,1016.72
2022-09-04T04:32:22.248Z,1016.69
2022-09-04T04:33:22.481Z,1016.75
2022-09-04T04:34:22.709Z,1016.72
2022-09-04T04:35:23.067Z,1016.75
2022-09-04T04:36:23.313Z,1016.74
2022-09-04T04:37:23.562Z,1016.75
2022-09-04T04:38:23.823Z,1016.63
2022-09-04T04:39:29.490Z,1016.74
2022-09-04T04:40:25.375Z,1016.75
2022-09-04T04:41:24.663Z,1016.71
2022-09-04T04:42:24.903Z,1016.69
2022-09-04T04:43:25.167Z,1016.74
2022-09-04T04:44:25.393Z,1016.76
2022-09-04T04:45:25.646Z,1016.73
2022-09-04T04:46:25.930Z,1016.68
2022-09-04T04:47:26.169Z,1016.74
2022-09-04T04:48:26.559Z,1016.68
2022-09-04T04:49:26.669Z,1016.68
2022-09-04T04:50:26.926Z,1016.66
2022-09-04T04:51:27.187Z,1016.67
2022-09-04T04:52:27.480Z,1016.69
2022-09-04T04:53:27.719Z,1016.68
2022-09-04T04:54:27.979Z,1016.71
2022-09-04T04:55:28.237Z,1016.80
2022-09-04T04:56:28.494Z,1016.74
2022-09-04T04:57:28.769Z,1016.73
2022-09-04T04:58:29.039Z,1016.82
2022-09-04T04:59:29.289Z,1016.84
2022-09-04T05:00:29.570Z,1016.82
2022-09-04T05:01:29.866Z,1016.85
2022-09-04T05:02:30.263Z,1016.90
2022-09-04T05:03:30.381Z,1016.91
2022-09-04T05:04:30.648Z,1016.90
2022-09-04T05:05:30.888Z,1016.93
2022-09-04T05:06:31.142Z,1016.98
2022-09-04T05:07:31.411Z,1016.95
2022-09-04T05:08:31.671Z,1016.98
2022-09-04T05:09:31.924Z,1016.94
2022-09-04T05:10:32.171Z,1016.99
2022-09-04T05:11:32.431Z,1016.97
2022-09-04T05:12:32.701Z,1016.98
2022-09-04T05:13:32.952Z,1017.04
2022-09-04T05:14:33.206Z,1016.97
2022-09-04T05:15:36.005Z,1017.02
2022-09-04T05:16:34.823Z,1017.04
2022-09-04T05:17:34.024Z,1017.11
2022-09-04T05:18:34.275Z,1017.03
2022-09-04T05:19:34.541Z,1017.07
2022-09-04T05:20:34.795Z,1017.11
2022-09-04T05:21:35.042Z,1017.15
2022-09-04T05:22:35.314Z,1017.14
2022-09-04T05:23:35.565Z,1017.12
2022-09-04T05:24:35.819Z,1017.17
2022-09-04T05:25:36.074Z,1017.16
2022-09-04T05:26:36.336Z,1017.20
2022-09-04T05:27:36.575Z,1017.19
2022-09-04T05:28:36.887Z,1017.23
2022-09-04T05:29:37.157Z,1017.24
2022-09-04T05:30:37.406Z,1017.21
2022-09-04T05:31:37.879Z,1017.25
2022-09-04T05:32:38.874Z,1017.28
2022-09-04T05:33:38.169Z,1017.21
2022-09-04T05:34:38.412Z,1017.22
2022-09-04T05:35:38.641Z,1017.28
2022-09-04T05:36:38.920Z,1017.26
2022-09-04T05:37:39.186Z,1017.29
2022-09-04T05:38:39.434Z,1017.31
2022-09-04T05:39:39.713Z,1017.29
2022-09-04T05:40:39.952Z,1017.34
2022-09-04T05:41:40.202Z,1017.22
2022-09-04T05:42:40.474Z,1017.25
2022-09-04T05:43:40.722Z,1017.26
2022-09-04T05:44:40.964Z,1017.28
2022-09-04T05:45:41.225Z,1017.32
2022-09-04T05:46:41.536Z,1017.33
2022-09-04T05:47:41.845Z,1017.34
2022-09-04T05:48:42.107Z,1017.37
2022-09-04T05:49:42.388Z,1017.32
2022-09-04T05:50:42.726Z,1017.34
2022-09-04T05:51:42.989Z,1017.41
2022-09-04T05:52:43.264Z,1017.44
2022-09-04T05:53:43.514Z,1017.45
2022-09-04T05:54:43.835Z,1017.46
2022-09-04T05:55:44.099Z,1017.49
2022-09-04T05:56:44.365Z,1017.48
2022-09-04T05:57:44.669Z,1017.53
2022-09-04T05:58:44.947Z,1017.54
2022-09-04T05:59:45.187Z,1017.53
2022-09-04T06:00:45.461Z,1017.63
2022-09-04T06:01:49.834Z,1017.59
2022-09-04T06:02:47.089Z,1017.61
2022-09-04T06:03:46.313Z,1017.59
2022-09-04T06:04:46.574Z,1017.61
2022-09-04T06:05:46.835Z,1017.63
2022-09-04T06:06:47.103Z,1017.62
2022-09-04T06:07:47.367Z,1017.66
2022-09-04T06:08:47.640Z,1017.66
2022-09-04T06:09:47.892Z,1017.62
2022-09-04T06:10:48.160Z,1017.67
2022-09-04T06:11:49.184Z,1017.68
2022-09-04T06:12:48.706Z,1017.74
2022-09-04T06:13:48.965Z,1017.71
2022-09-04T06:14:49.242Z,1017.71
2022-09-04T06:15:49.569Z,1017.71
2022-09-04T06:16:49.802Z,1017.70
2022-09-04T06:17:50.068Z,1017.64
2022-09-04T06:18:50.333Z,1017.69
2022-09-04T06:19:50.625Z,1017.77
2022-09-04T06:20:50.884Z,1017.80
2022-09-04T06:21:52.625Z,1017.82
2022-09-04T06:22:55.042Z,1017.80
2022-09-04T06:23:52.467Z,1017.81
2022-09-04T06:24:51.949Z,1017.79
2022-09-04T06:25:52.967Z,1017.74
2022-09-04T06:26:53.197Z,1017.78
2022-09-04T06:27:52.692Z,1017.78
2022-09-04T06:28:52.970Z,1017.78
2022-09-04T06:29:53.248Z,1017.79
2022-09-04T06:30:54.211Z,1017.72
2022-09-04T06:31:53.740Z,1017.69
2022-09-04T06:32:53.998Z,1017.76
2022-09-04T06:33:54.271Z,1017.76
2022-09-04T06:34:54.543Z,1017.73
2022-09-04T06:35:54.823Z,1017.72
2022-09-04T06:36:55.082Z,1017.72
2022-09-04T06:37:55.411Z,1017.72
2022-09-04T06:38:55.692Z,1017.71
2022-09-04T06:39:56.028Z,1017.82
2022-09-04T06:40:56.302Z,1017.73
2022-09-04T06:41:56.594Z,1017.71
2022-09-04T06:42:56.832Z,1017.74
2022-09-04T06:43:57.097Z,1017.71
2022-09-04T06:44:57.379Z,1017.77
2022-09-04T06:46:02.001Z,1017.78
2022-09-04T06:46:57.979Z,1017.73
2022-09-04T06:47:58.245Z,1017.84
2022-09-04T06:48:58.506Z,1017.76
2022-09-04T06:49:58.756Z,1017.74
2022-09-04T06:50:59.017Z,1017.69
2022-09-04T06:51:59.257Z,1017.71
2022-09-04T06:53:03.974Z,1017.73
2022-09-04T06:53:59.834Z,1017.81
2022-09-04T06:55:00.071Z,1017.79
2022-09-04T06:56:01.086Z,1017.79
2022-09-04T06:57:00.557Z,1017.80
2022-09-04T06:58:00.800Z,1017.93
2022-09-04T06:59:01.616Z,1017.90
2022-09-04T07:00:01.502Z,1017.95
2022-09-04T07:01:01.739Z,1017.94
2022-09-04T07:02:02.134Z,1017.90
2022-09-04T07:03:02.302Z,1017.99
2022-09-04T07:04:02.549Z,1017.97
2022-09-04T07:05:02.792Z,1017.95
2022-09-04T07:06:03.043Z,1017.97
2022-09-04T07:07:04.257Z,1017.98
2022-09-04T07:08:03.562Z,1017.94
2022-09-04T07:09:03.814Z,1018.02
2022-09-04T07:10:07.244Z,1018.02
2022-09-04T07:11:05.423Z,1018.00
2022-09-04T07:12:04.714Z,1017.99
2022-09-04T07:13:04.969Z,1018.10
2022-09-04T07:14:05.264Z,1018.05
2022-09-04T07:15:05.527Z,1018.09
2022-09-04T07:16:05.962Z,1018.12
2022-09-04T07:17:07.132Z,1018.13
2022-09-04T07:18:06.479Z,1018.14
2022-09-04T07:19:06.738Z,1018.12
2022-09-04T07:20:07.007Z,1018.19
2022-09-04T07:21:07.310Z,1018.13
2022-09-04T07:22:07.631Z,1018.15
2022-09-04T07:23:07.898Z,1018.12
2022-09-04T07:24:08.166Z,1018.17
2022-09-04T07:25:08.440Z,1018.17
2022-09-04T07:26:08.801Z,1018.17
2022-09-04T07:27:08.938Z,1018.09
2022-09-04T07:28:09.220Z,1018.14
2022-09-04T07:29:09.507Z,1018.14
2022-09-04T07:30:09.753Z,1018.10
2022-09-04T07:31:10.030Z,1018.14
2022-09-04T07:32:10.281Z,1018.14
2022-09-04T07:33:10.552Z,1018.13
2022-09-04T07:34:10.841Z,1018.12
2022-09-04T07:35:11.095Z,1018.16
2022-09-04T07:36:11.353Z,1018.14
2022-09-04T07:37:12.182Z,1018.16
2022-09-04T07:38:11.864Z,1018.21
2022-09-04T07:39:12.112Z,1018.27
2022-09-04T07:40:12.427Z,1018.18
2022-09-04T07:41:14.871Z,1018.21
2022-09-04T07:42:14.054Z,1018.18
2022-09-04T07:43:13.246Z,1018.19
2022-09-04T07:44:13.515Z,1018.21
2022-09-04T07:45:13.790Z,1018.18
2022-09-04T07:46:14.144Z,1018.25
2022-09-04T07:47:14.314Z,1018.24
2022-09-04T07:48:14.547Z,1018.22
2022-09-04T07:49:14.837Z,1018.25
2022-09-04T07:50:15.105Z,1018.18
2022-09-04T07:51:15.387Z,1018.24
2022-09-04T07:52:15.668Z,1018.33
2022-09-04T07:53:15.928Z,1018.38
2022-09-04T07:54:22.430Z,1018.36
2022-09-04T07:55:17.423Z,1018.35
2022-09-04T07:56:16.736Z,1018.31
2022-09-04T07:57:17.016Z,1018.33
2022-09-04T07:58:17.270Z,1018.33
2022-09-04T07:59:17.661Z,1018.32
2022-09-04T08:00:17.996Z,1018.30
2022-09-04T08:01:18.155Z,1018.30
2022-09-04T08:02:18.411Z,1018.27
2022-09-04T08:03:18.672Z,1018.29
2022-09-04T08:04:18.929Z,1018.28
2022-09-04T08:05:20.131Z,1018.20
2022-09-04T08:06:19.470Z,1018.24
2022-09-04T08:07:19.723Z,1018.27
2022-09-04T08:08:20.046Z,1018.24
2022-09-04T08:09:20.263Z,1018.29
2022-09-04T08:10:20.518Z,1018.26
2022-09-04T08:11:20.800Z,1018.28
2022-09-04T08:12:21.065Z,1018.35
2022-09-04T08:13:21.313Z,1018.35
2022-09-04T08:14:21.601Z,1018.38
2022-09-04T08:15:22.095Z,1018.38
2022-09-04T08:16:22.233Z,1018.43
2022-09-04T08:17:22.506Z,1018.44
2022-09-04T08:18:22.792Z,1018.42
2022-09-04T08:19:23.068Z,1018.44
2022-09-04T08:20:23.429Z,1018.38
2022-09-04T08:21:23.590Z,1018.32
2022-09-04T08:22:28.137Z,1018.37
2022-09-04T08:23:24.101Z,1018.36
2022-09-04T08:24:24.369Z,1018.30
2022-09-04T08:25:24.649Z,1018.28
2022-09-04T08:26:24.941Z,1018.33
2022-09-04T08:27:25.190Z,1018.32
2022-09-04T08:28:25.547Z,1018.28
2022-09-04T08:29:25.758Z,1018.38
2022-09-04T08:30:26.086Z,1018.31
2022-09-04T08:31:26.306Z,1018.31
2022-09-04T08:32:36.733Z,1018.35
2022-09-04T08:33:27.953Z,1018.35
2022-09-04T08:34:27.202Z,1018.31
2022-09-04T08:35:27.678Z,1018.38
2022-09-04T08:36:27.852Z,1018.36
2022-09-04T08:37:28.300Z,1018.32
2022-09-04T08:38:28.406Z,1018.29
2022-09-04T08:39:28.802Z,1018.34
2022-09-04T08:40:28.941Z,1018.32
2022-09-04T08:41:29.215Z,1018.36
2022-09-04T08:42:29.514Z,1018.37
2022-09-04T08:43:29.736Z,1018.34
2022-09-04T08:44:29.985Z,1018.38
2022-09-04T08:45:30.270Z,1018.38
2022-09-04T08:46:30.721Z,1018.41
2022-09-04T08:47:30.866Z,1018.40
2022-09-04T08:48:31.155Z,1018.41
2022-09-04T08:49:31.328Z,1018.42
2022-09-04T08:50:31.606Z,1018.43
2022-09-04T08:51:31.865Z,1018.43
2022-09-04T08:52:32.204Z,1018.40
2022-09-04T08:53:32.461Z,1018.48
2022-09-04T08:54:32.712Z,1018.41
2022-09-04T08:55:33.018Z,1018.40
2022-09-04T08:56:33.302Z,1018.36
2022-09-04T08:57:33.593Z,1018.39
2022-09-04T08:58:34.496Z,1018.39
2022-09-04T08:59:34.173Z,1018.41
2022-09-04T09:00:34.422Z,1018.40
2022-09-04T09:01:35.000Z,1018.40
2022-09-04T09:02:35.018Z,1018.35
2022-09-04T09:03:35.320Z,1018.35
2022-09-04T09:04:35.585Z,1018.36
2022-09-04T09:05:35.844Z,1018.33
2022-09-04T09:06:36.155Z,1018.37
2022-09-04T09:07:36.506Z,1018.34
2022-09-04T09:08:36.673Z,1018.36
2022-09-04T09:09:36.985Z,1018.38
2022-09-04T09:10:37.257Z,1018.46
2022-09-04T09:11:37.528Z,1018.44
2022-09-04T09:12:41.464Z,1018.43
2022-09-04T09:13:38.357Z,1018.46
2022-09-04T09:14:38.480Z,1018.49
2022-09-04T09:15:38.771Z,1018.45
2022-09-04T09:16:39.103Z,1018.43
2022-09-04T09:17:39.269Z,1018.48
2022-09-04T09:18:40.750Z,1018.47
2022-09-04T09:19:39.802Z,1018.47
2022-09-04T09:20:40.069Z,1018.41
2022-09-04T09:21:40.382Z,1018.41
2022-09-04T09:27:41.942Z,1018.33
2022-09-04T09:28:42.207Z,1018.30
2022-09-04T09:29:42.294Z,1018.24
2022-09-04T09:30:42.683Z,1018.22
2022-09-04T09:31:42.796Z,1018.20
2022-09-04T09:32:43.062Z,1018.22
2022-09-04T09:33:43.393Z,1018.18
2022-09-04T09:34:43.685Z,1018.23
2022-09-04T09:35:44.096Z,1018.23
2022-09-04T09:36:44.320Z,1018.24
2022-09-04T09:37:44.452Z,1018.23
2022-09-04T09:38:44.690Z,1018.16
2022-09-04T09:39:45.120Z,1018.17
2022-09-04T09:40:45.287Z,1018.11
2022-09-04T09:41:45.612Z,1018.20
2022-09-04T09:42:45.867Z,1018.19
2022-09-04T09:43:46.192Z,1018.17
2022-09-04T09:44:46.450Z,1018.21
2022-09-04T09:45:46.782Z,1018.20
2022-09-04T09:46:47.258Z,1018.19
2022-09-04T09:47:47.551Z,1018.23
2022-09-04T09:48:47.852Z,1018.22
2022-09-04T09:49:47.845Z,1018.25
2022-09-04T09:50:48.099Z,1018.28
2022-09-04T09:51:48.393Z,1018.25
2022-09-04T09:52:48.685Z,1018.25
2022-09-04T09:53:48.968Z,1018.24
2022-09-04T09:54:49.267Z,1018.21
2022-09-04T09:55:49.575Z,1018.18
2022-09-04T09:56:53.843Z,1018.17
2022-09-04T09:57:50.087Z,1018.19
2022-09-04T09:58:50.389Z,1018.22
2022-09-04T09:59:50.739Z,1018.21
2022-09-04T10:00:51.077Z,1018.23
2022-09-04T10:01:51.220Z,1018.16
2022-09-04T10:02:51.639Z,1018.20
2022-09-04T10:03:51.833Z,1018.15
2022-09-04T10:04:52.004Z,1018.14
2022-09-04T10:05:52.432Z,1018.28
2022-09-04T10:06:52.592Z,1018.19
2022-09-04T10:07:52.850Z,1018.19
2022-09-04T10:08:53.260Z,1018.19
2022-09-04T10:09:53.394Z,1018.20
2022-09-04T10:10:53.653Z,1018.14
2022-09-04T10:11:54.044Z,1018.15
2022-09-04T10:12:54.264Z,1018.17
2022-09-04T10:13:54.553Z,1018.21
2022-09-04T10:14:55.178Z,1018.13
2022-09-04T10:15:55.184Z,1018.16
2022-09-04T10:16:55.658Z,1018.17
2022-09-04T10:17:55.827Z,1018.13
2022-09-04T10:18:56.124Z,1018.11
2022-09-04T10:19:56.407Z,1018.17
2022-09-04T10:20:56.697Z,1018.17
2022-09-04T10:21:57.026Z,1018.08
2022-09-04T10:22:57.313Z,1018.08
2022-09-04T10:23:57.638Z,1018.11
2022-09-04T10:24:57.926Z,1018.13
2022-09-04T10:25:58.270Z,1018.07
2022-09-04T10:26:58.608Z,1018.16
2022-09-04T10:27:58.786Z,1018.18
2022-09-04T10:28:59.107Z,1018.16
2022-09-04T10:29:59.341Z,1018.11
2022-09-04T10:30:59.667Z,1018.12
2022-09-04T10:31:59.971Z,1018.06
2022-09-04T10:33:00.319Z,1018.10
2022-09-04T10:34:00.573Z,1018.12
2022-09-04T10:35:00.933Z,1018.12
2022-09-04T10:36:01.204Z,1018.16
2022-09-04T10:37:01.574Z,1018.15
2022-09-04T10:38:01.855Z,1018.12
2022-09-04T10:39:02.114Z,1018.18
2022-09-04T10:40:02.572Z,1018.15
2022-09-04T10:41:02.566Z,1018.14
2022-09-04T10:42:02.897Z,1018.11
2022-09-04T10:43:03.196Z,1018.17
2022-09-04T10:44:03.578Z,1018.19
2022-09-04T10:45:03.838Z,1018.14
2022-09-04T10:46:04.215Z,1018.16
2022-09-04T10:47:04.358Z,1018.18
2022-09-04T10:48:04.638Z,1018.15
2022-09-04T10:49:04.922Z,1018.16
2022-09-04T10:50:05.259Z,1018.13
2022-09-04T10:51:05.610Z,1018.17
2022-09-04T10:52:05.880Z,1018.19
2022-09-04T10:53:06.128Z,1018.18
2022-09-04T10:54:08.095Z,1018.21
2022-09-04T10:55:06.957Z,1018.18
2022-09-04T10:58:59.119Z,1018.15
2022-09-04T10:59:59.426Z,1018.10
2022-09-04T11:00:59.522Z,1018.11
2022-09-04T11:01:59.781Z,1018.14
2022-09-04T11:03:00.009Z,1018.09
2022-09-04T11:04:00.245Z,1018.12
2022-09-04T11:05:00.533Z,1018.12
2022-09-04T11:06:00.774Z,1018.15
2022-09-04T11:07:01.024Z,1018.08
2022-09-04T11:08:01.264Z,1018.10
2022-09-04T11:09:01.493Z,1018.12
2022-09-04T11:10:01.745Z,1018.07
2022-09-04T11:11:01.964Z,1018.13
2022-09-04T11:12:02.222Z,1018.11
2022-09-04T11:13:02.474Z,1018.10
2022-09-04T11:14:02.715Z,1018.10
2022-09-04T11:15:02.968Z,1018.20
2022-09-04T11:16:03.238Z,1018.18
2022-09-04T11:17:03.490Z,1018.21
2022-09-04T11:18:03.701Z,1018.16
2022-09-04T11:19:03.942Z,1018.20
2022-09-04T11:20:04.201Z,1018.16
2022-09-04T11:21:04.430Z,1018.22
2022-09-04T11:22:04.678Z,1018.21
2022-09-04T11:23:04.910Z,1018.21
2022-09-04T11:24:05.163Z,1018.18
2022-09-04T11:25:05.399Z,1018.16
2022-09-04T11:26:05.640Z,1018.17
2022-09-04T11:27:08.180Z,1018.20
2022-09-04T11:28:06.209Z,1018.13
2022-09-04T11:29:06.469Z,1018.12
2022-09-04T11:30:06.725Z,1018.13
2022-09-04T11:31:06.963Z,1018.13
2022-09-04T11:32:07.211Z,1018.16
2022-09-04T11:33:07.457Z,1018.09
2022-09-04T11:34:07.693Z,1018.14
2022-09-04T11:35:07.940Z,1018.15
2022-09-04T11:36:08.189Z,1018.14
2022-09-04T11:37:08.418Z,1018.06
2022-09-04T11:38:08.687Z,1018.07
2022-09-04T11:39:08.928Z,1018.05
2022-09-04T11:40:09.239Z,1017.99
2022-09-04T11:41:10.205Z,1018.03
2022-09-04T11:42:09.829Z,1018.07
2022-09-04T11:43:10.128Z,1017.98
2022-09-04T11:44:10.407Z,1017.98
2022-09-04T11:45:10.669Z,1017.99
2022-09-04T11:46:10.973Z,1018.08
2022-09-04T11:47:11.253Z,1017.98
2022-09-04T11:48:11.540Z,1017.94
2022-09-04T11:49:11.804Z,1017.95
2022-09-04T11:50:12.055Z,1017.91
2022-09-04T11:51:12.331Z,1017.95
2022-09-04T11:52:12.624Z,1017.98
2022-09-04T11:53:12.896Z,1017.96
2022-09-04T11:54:15.194Z,1017.92
2022-09-04T11:55:13.495Z,1017.93
2022-09-04T11:56:13.814Z,1017.90
2022-09-04T11:57:14.077Z,1017.89
2022-09-04T11:58:14.365Z,1017.90
2022-09-04T11:59:14.606Z,1017.87
2022-09-04T12:00:14.887Z,1017.89
2022-09-04T12:01:15.122Z,1017.91
2022-09-04T12:02:15.435Z,1017.86
2022-09-04T12:03:15.718Z,1017.92
2022-09-04T12:04:16.017Z,1017.91
2022-09-04T12:05:16.292Z,1017.92
2022-09-04T12:06:16.568Z,1017.87
2022-09-04T12:07:16.811Z,1017.86
2022-09-04T12:08:17.140Z,1017.85
2022-09-04T12:09:17.389Z,1017.82
2022-09-04T12:10:17.641Z,1017.81
2022-09-04T12:11:17.922Z,1017.78
2022-09-04T12:12:18.177Z,1017.78
2022-09-04T12:13:18.442Z,1017.78
2022-09-04T12:14:18.686Z,1017.73
2022-09-04T12:15:18.979Z,1017.73
2022-09-04T12:16:19.268Z,1017.76
2022-09-04T12:17:19.527Z,1017.61